Starship Express — WCZ3442 — position and weather

sailwx.info

Track history (hours):
 
Tides and Currents Weather Stations Pressure Air Temp Water Temp Dewpoint Dewpoint Depression Visibility Wind Speed Wind Dir Waves Ship Positions

Starship Express

Owner: CATALINA CHANNEL EXPRESS INC, SAN PEDRO, CA. More information available from US FCC via Universal Licensing System and Coast Guard Vessel Documentation Center.

Last reported at 2017-Nov-22 22:59 UTC. Time now 2017-Nov-23 01:49 UTC.
Position N 33°38' W 118°12'.

Length 41 m; draft 3 m.

Type: High speed craft. MMSI: 366768030.

Date/timePositionNaut miles runAvg speedWind from/ knotsBaromVisibWave heightAir tempDewpointWater temp
2017-Nov-22 22:59N 33°38' W 118°12'  
2017-Nov-19 23:02N 33°36' W 118°12'126.6
2017-Nov-19 22:59N 33°35' W 118°13'1610.0
2017-Nov-19 21:26N 33°21' W 118°19'1224.9
2017-Nov-19 20:56N 33°32' W 118°15'14 8.5
2017-Nov-19 19:21N 33°46' W 118°12'2322.5
2017-Nov-19 18:20N 33°23' W 118°18'3 3.3
2017-Nov-19 17:31N 33°21' W 118°19'0 0.2
2017-Nov-19 17:28N 33°21' W 118°19'1223.2
2017-Nov-19 16:58N 33°32' W 118°15'1325.9
2017-Nov-19 16:28N 33°44' W 118°11'6 0.5
2017-Nov-19 03:06N 33°38' W 118°13'225.2
2017-Nov-19 03:00N 33°36' W 118°14'1325.2
2017-Nov-19 02:29N 33°23' W 118°19'3 5.5
2017-Nov-19 01:59N 33°21' W 118°19'610.6
2017-Nov-19 01:27N 33°26' W 118°17'1227.6
2017-Nov-19 01:01N 33°38' W 118°13'8 6.9
2017-Nov-18 23:49N 33°46' W 118°12'0 0.5
2017-Nov-18 23:29N 33°46' W 118°12'918.7
2017-Nov-18 23:00N 33°37' W 118°12'1326.7
2017-Nov-18 22:30N 33°24' W 118°18'2 2.1
2017-Nov-18 21:27N 33°22' W 118°19'1426.7
2017-Nov-18 20:55N 33°35' W 118°14'10 4.0
2017-Nov-18 18:28N 33°26' W 118°17'12 0.3
2017-Nov-17 04:19N 33°37' W 118°12'927.2
2017-Nov-17 03:59N 33°29' W 118°16'7 6.4
2017-Nov-17 02:57N 33°22' W 118°18'1427.2
2017-Nov-17 02:26N 33°36' W 118°13'15 4.7
2017-Nov-16 23:11N 33°22' W 118°18'526.8
2017-Nov-16 23:00N 33°26' W 118°16'12 4.8
2017-Nov-16 20:28N 33°38' W 118°12'1226.4
2017-Nov-16 20:00N 33°27' W 118°17'610.8
2017-Nov-16 19:26N 33°21' W 118°19'0 0.0
2017-Nov-16 18:57N 33°21' W 118°19'1125.0
2017-Nov-16 18:30N 33°31' W 118°15'6 2.9
2017-Nov-16 16:25N 33°37' W 118°13'1327.2
2017-Nov-16 15:55N 33°24' W 118°18'4 7.8
2017-Nov-16 15:26N 33°21' W 118°19'3 7.3
2017-Nov-16 14:58N 33°24' W 118°18'1327.9
2017-Nov-16 14:30N 33°36' W 118°13'1010.2
2017-Nov-16 13:33N 33°46' W 118°12'1 0.1
2017-Nov-16 04:36N 33°45' W 118°11'822.7
2017-Nov-16 04:15N 33°38' W 118°12'1127.0
2017-Nov-16 03:51N 33°28' W 118°17'1 1.3
2017-Nov-16 02:41N 33°29' W 118°16'628.2
2017-Nov-16 02:27N 33°35' W 118°14'3 1.8
2017-Nov-16 00:37N 33°38' W 118°12'326.2
2017-Nov-16 00:30N 33°35' W 118°13'1326.1
2017-Nov-16 00:00N 33°22' W 118°19'2 2.2
2017-Nov-15 23:10N 33°21' W 118°19'420.6
2017-Nov-15 23:00N 33°24' W 118°17'1326.9
2017-Nov-15 22:31N 33°36' W 118°13'9 5.2
2017-Nov-15 20:48N 33°45' W 118°11'824.6
2017-Nov-15 20:28N 33°37' W 118°13'1225.9
2017-Nov-15 20:00N 33°25' W 118°17'9 6.1
2017-Nov-15 18:29N 33°34' W 118°13'1223.9
2017-Nov-15 18:00N 33°45' W 118°11'7 4.7
2017-Nov-15 16:31N 33°38' W 118°12'1711.5
2017-Nov-15 15:03N 33°22' W 118°18'127.8
2017-Nov-15 15:00N 33°24' W 118°18'1427.3
2017-Nov-15 14:31N 33°37' W 118°13'2 0.2
2017-Nov-15 04:08N 33°35' W 118°13'927.2
2017-Nov-15 03:49N 33°27' W 118°17'5 5.4
2017-Nov-15 02:53N 33°22' W 118°19'5 2.0
2017-Nov-15 00:10N 33°27' W 118°17'426.0
2017-Nov-15 00:00N 33°23' W 118°19'1 1.3
2017-Nov-14 23:05N 33°22' W 118°19'227.1
2017-Nov-14 23:00N 33°24' W 118°17'15 6.0
2017-Nov-14 20:31N 33°38' W 118°12'026.1
2017-Nov-14 20:30N 33°38' W 118°12'1426.1
2017-Nov-14 19:59N 33°25' W 118°18'4 4.9
2017-Nov-14 19:04N 33°21' W 118°19'1 4.9
2017-Nov-14 18:57N 33°21' W 118°19'2511.9
2017-Nov-14 16:51N 33°46' W 118°12'719.9
2017-Nov-14 16:29N 33°39' W 118°12'1326.6
2017-Nov-14 16:00N 33°26' W 118°17'610.9
2017-Nov-14 15:28N 33°21' W 118°19'4 7.6
2017-Nov-14 15:00N 33°24' W 118°18'1427.5
2017-Nov-14 14:30N 33°37' W 118°13'9 0.9
2017-Nov-14 04:38N 33°46' W 118°12'719.3
2017-Nov-14 04:17N 33°39' W 118°12'926.4
2017-Nov-14 03:57N 33°30' W 118°15'1015.7
2017-Nov-14 03:18N 33°21' W 118°19'1 3.5
2017-Nov-14 02:54N 33°22' W 118°19'1126.8
2017-Nov-14 02:29N 33°33' W 118°15'13 9.9
2017-Nov-14 01:09N 33°46' W 118°12'416.9
2017-Nov-14 00:55N 33°42' W 118°11'1224.5
2017-Nov-14 00:26N 33°31' W 118°16'1010.3
2017-Nov-13 23:25N 33°21' W 118°19'920.7
2017-Nov-13 22:58N 33°30' W 118°16'1224.9
2017-Nov-13 22:30N 33°41' W 118°12'10 0.5
2017-Nov-13 01:15N 33°32' W 118°16'14 8.0
2017-Nov-12 23:28N 33°46' W 118°12'  
Track history (hours):
 
Tides and Currents Weather Stations Pressure Air Temp Water Temp Dewpoint Dewpoint Depression Visibility Wind Speed Wind Dir Waves Ship Positions

Starship Express

Owner: CATALINA CHANNEL EXPRESS INC, SAN PEDRO, CA. More information available from US FCC via Universal Licensing System and Coast Guard Vessel Documentation Center.

Last reported at 2017-Nov-22 22:59 UTC. Time now 2017-Nov-23 01:49 UTC.
Position N 33°38' W 118°12'.

Length 41 m; draft 3 m.

Type: High speed craft. MMSI: 366768030.

Date/timePositionNaut miles runAvg speedWind from/ knotsBaromVisibWave heightAir tempDewpointWater temp
2017-Nov-22 22:59N 33°38' W 118°12'  
2017-Nov-19 23:02N 33°36' W 118°12'126.6
2017-Nov-19 22:59N 33°35' W 118°13'1610.0
2017-Nov-19 21:26N 33°21' W 118°19'1224.9
2017-Nov-19 20:56N 33°32' W 118°15'14 8.5
2017-Nov-19 19:21N 33°46' W 118°12'2322.5
2017-Nov-19 18:20N 33°23' W 118°18'3 3.3
2017-Nov-19 17:31N 33°21' W 118°19'0 0.2
2017-Nov-19 17:28N 33°21' W 118°19'1223.2
2017-Nov-19 16:58N 33°32' W 118°15'1325.9
2017-Nov-19 16:28N 33°44' W 118°11'6 0.5
2017-Nov-19 03:06N 33°38' W 118°13'225.2
2017-Nov-19 03:00N 33°36' W 118°14'1325.2
2017-Nov-19 02:29N 33°23' W 118°19'3 5.5
2017-Nov-19 01:59N 33°21' W 118°19'610.6
2017-Nov-19 01:27N 33°26' W 118°17'1227.6
2017-Nov-19 01:01N 33°38' W 118°13'8 6.9
2017-Nov-18 23:49N 33°46' W 118°12'0 0.5
2017-Nov-18 23:29N 33°46' W 118°12'918.7
2017-Nov-18 23:00N 33°37' W 118°12'1326.7
2017-Nov-18 22:30N 33°24' W 118°18'2 2.1
2017-Nov-18 21:27N 33°22' W 118°19'1426.7
2017-Nov-18 20:55N 33°35' W 118°14'10 4.0
2017-Nov-18 18:28N 33°26' W 118°17'12 0.3
2017-Nov-17 04:19N 33°37' W 118°12'927.2
2017-Nov-17 03:59N 33°29' W 118°16'7 6.4
2017-Nov-17 02:57N 33°22' W 118°18'1427.2
2017-Nov-17 02:26N 33°36' W 118°13'15 4.7
2017-Nov-16 23:11N 33°22' W 118°18'526.8
2017-Nov-16 23:00N 33°26' W 118°16'12 4.8
2017-Nov-16 20:28N 33°38' W 118°12'1226.4
2017-Nov-16 20:00N 33°27' W 118°17'610.8
2017-Nov-16 19:26N 33°21' W 118°19'0 0.0
2017-Nov-16 18:57N 33°21' W 118°19'1125.0
2017-Nov-16 18:30N 33°31' W 118°15'6 2.9
2017-Nov-16 16:25N 33°37' W 118°13'1327.2
2017-Nov-16 15:55N 33°24' W 118°18'4 7.8
2017-Nov-16 15:26N 33°21' W 118°19'3 7.3
2017-Nov-16 14:58N 33°24' W 118°18'1327.9
2017-Nov-16 14:30N 33°36' W 118°13'1010.2
2017-Nov-16 13:33N 33°46' W 118°12'1 0.1
2017-Nov-16 04:36N 33°45' W 118°11'822.7
2017-Nov-16 04:15N 33°38' W 118°12'1127.0
2017-Nov-16 03:51N 33°28' W 118°17'1 1.3
2017-Nov-16 02:41N 33°29' W 118°16'628.2
2017-Nov-16 02:27N 33°35' W 118°14'3 1.8
2017-Nov-16 00:37N 33°38' W 118°12'326.2
2017-Nov-16 00:30N 33°35' W 118°13'1326.1
2017-Nov-16 00:00N 33°22' W 118°19'2 2.2
2017-Nov-15 23:10N 33°21' W 118°19'420.6
2017-Nov-15 23:00N 33°24' W 118°17'1326.9
2017-Nov-15 22:31N 33°36' W 118°13'9 5.2
2017-Nov-15 20:48N 33°45' W 118°11'824.6
2017-Nov-15 20:28N 33°37' W 118°13'1225.9
2017-Nov-15 20:00N 33°25' W 118°17'9 6.1
2017-Nov-15 18:29N 33°34' W 118°13'1223.9
2017-Nov-15 18:00N 33°45' W 118°11'7 4.7
2017-Nov-15 16:31N 33°38' W 118°12'1711.5
2017-Nov-15 15:03N 33°22' W 118°18'127.8
2017-Nov-15 15:00N 33°24' W 118°18'1427.3
2017-Nov-15 14:31N 33°37' W 118°13'2 0.2
2017-Nov-15 04:08N 33°35' W 118°13'927.2
2017-Nov-15 03:49N 33°27' W 118°17'5 5.4
2017-Nov-15 02:53N 33°22' W 118°19'5 2.0
2017-Nov-15 00:10N 33°27' W 118°17'426.0
2017-Nov-15 00:00N 33°23' W 118°19'1 1.3
2017-Nov-14 23:05N 33°22' W 118°19'227.1
2017-Nov-14 23:00N 33°24' W 118°17'15 6.0
2017-Nov-14 20:31N 33°38' W 118°12'026.1
2017-Nov-14 20:30N 33°38' W 118°12'1426.1
2017-Nov-14 19:59N 33°25' W 118°18'4 4.9
2017-Nov-14 19:04N 33°21' W 118°19'1 4.9
2017-Nov-14 18:57N 33°21' W 118°19'2511.9
2017-Nov-14 16:51N 33°46' W 118°12'719.9
2017-Nov-14 16:29N 33°39' W 118°12'1326.6
2017-Nov-14 16:00N 33°26' W 118°17'610.9
2017-Nov-14 15:28N 33°21' W 118°19'4 7.6
2017-Nov-14 15:00N 33°24' W 118°18'1427.5
2017-Nov-14 14:30N 33°37' W 118°13'9 0.9
2017-Nov-14 04:38N 33°46' W 118°12'719.3
2017-Nov-14 04:17N 33°39' W 118°12'926.4
2017-Nov-14 03:57N 33°30' W 118°15'1015.7
2017-Nov-14 03:18N 33°21' W 118°19'1 3.5
2017-Nov-14 02:54N 33°22' W 118°19'1126.8
2017-Nov-14 02:29N 33°33' W 118°15'13 9.9
2017-Nov-14 01:09N 33°46' W 118°12'416.9
2017-Nov-14 00:55N 33°42' W 118°11'1224.5
2017-Nov-14 00:26N 33°31' W 118°16'1010.3
2017-Nov-13 23:25N 33°21' W 118°19'920.7
2017-Nov-13 22:58N 33°30' W 118°16'1224.9
2017-Nov-13 22:30N 33°41' W 118°12'10 0.5
2017-Nov-13 01:15N 33°32' W 118°16'14 8.0
2017-Nov-12 23:28N 33°46' W 118°12'  

Dump ship's entire track history